首页
METAR-TAF:

METAR-TAF

机场 :

迪本多夫, 瑞士

纬度: 47-23-55N, 经度: 8-38-53E, 海拔: 448米

当前天气观测

该预报发布于26分钟前的18:50 UTC
风速3节,风向西北
温度 6°C
湿度 56%
气压 1029 hPa
能见度10公里或以上
阴天层高于6700英尺

METAR: LSMD 181850Z 31003KT 9999 OVC067 06/M02 Q1029 RMK BLU

时间: 20:16 (19:16 UTC)


TAF: 丢失

超过4000个机场的气象观测和天气预报(METAR&TAF报告)。

可查询的气象台以黄色和红色小点在地图上表示。

将鼠标移到小点上方,可查看气象台名称。

然后点击查看天气观测和预报。

如需切换地图:点击带黑十字的绿色按钮放大地图;点击带横线的绿色按钮缩小地图;或者点击绿色箭头查看邻近地区的地图。


METAR-TAF: